Time;durP1;ratioP1;P1;durP2;ratioP2;P2;SDS_P1;SDS_P2;PMS_P1;PMS_P2;Temp;Humidity;BMP_temperature;BMP_pressure;BME280_temperature;BME280_humidity;BME280_pressure;Samples;Min_cycle;Max_cycle;Signal;HPM_P1;HPM_P2
2021/04/13 00:01:24;;;;;;;15.15;8.38;;;;;;;13.43;47.99;94806.13;2985894;39;20054;-84
2021/04/13 00:03:26;;;;;;;14.65;8.15;;;;;;;13.41;47.85;94813.38;2993857;39;20062;-73
2021/04/13 00:05:34;;;;;;;13.60;8.50;;;;;;;13.43;47.89;94807.94;2993865;39;20086;-73
2021/04/13 00:07:39;;;;;;;16.52;9.52;;;;;;;13.35;48.08;94815.88;2983908;39;20054;-71
2021/04/13 00:09:40;;;;;;;12.43;7.72;;;;;;;13.31;47.68;94818.03;2983521;39;20054;-70
2021/04/13 00:11:43;;;;;;;14.43;7.65;;;;;;;13.28;47.34;94818.34;2983285;39;20055;-71
2021/04/13 00:13:44;;;;;;;15.27;7.40;;;;;;;13.20;47.06;94819.19;2980779;39;20297;-73
2021/04/13 00:15:52;;;;;;;12.00;7.40;;;;;;;13.10;47.39;94818.63;2984162;39;20047;-73
2021/04/13 00:17:55;;;;;;;13.05;6.93;;;;;;;13.08;47.60;94816.16;2993577;39;20326;-72
2021/04/13 00:20:03;;;;;;;13.07;8.00;;;;;;;13.04;47.73;94816.66;2993102;39;20384;-72
2021/04/13 00:22:04;;;;;;;13.75;7.85;;;;;;;12.75;48.34;94807.56;2971251;39;20055;-72
2021/04/13 00:24:11;;;;;;;13.43;7.30;;;;;;;12.75;48.55;94812.00;2981985;39;20125;-72
2021/04/13 00:26:22;;;;;;;13.30;7.47;;;;;;;12.78;48.27;94827.44;2983278;39;20077;-73
2021/04/13 00:28:29;;;;;;;10.60;6.53;;;;;;;12.75;48.16;94822.50;2983395;39;20079;-72
2021/04/13 00:30:43;;;;;;;12.43;7.88;;;;;;;12.76;48.34;94824.16;2981585;39;20100;-72
2021/04/13 00:33:14;;;;;;;15.77;6.50;;;;;;;12.74;48.54;94826.13;2988595;39;20074;-71
2021/04/13 00:35:28;;;;;;;11.48;6.43;;;;;;;12.62;48.88;94829.09;2977118;39;20055;-71
2021/04/13 00:37:32;;;;;;;11.75;6.85;;;;;;;12.60;48.94;94836.34;2976501;39;20080;-71
2021/04/13 00:39:33;;;;;;;11.63;6.53;;;;;;;12.59;48.93;94845.22;2977271;39;20413;-71
2021/04/13 00:41:54;;;;;;;10.30;7.05;;;;;;;12.48;49.82;94841.13;2984654;39;20054;-71
2021/04/13 00:43:59;;;;;;;10.20;6.13;;;;;;;12.55;48.99;94841.28;2969524;39;20079;-71
2021/04/13 00:46:04;;;;;;;10.95;6.07;;;;;;;12.44;49.44;94839.84;2982224;39;20362;-73
2021/04/13 00:48:06;;;;;;;10.82;6.78;;;;;;;12.07;50.46;94843.00;2980833;39;20056;-71
2021/04/13 00:50:12;;;;;;;11.85;6.28;;;;;;;11.63;51.74;94853.75;2990507;39;20335;-74
2021/04/13 00:52:16;;;;;;;12.40;6.85;;;;;;;11.57;52.33;94849.13;2977247;39;20426;-72
2021/04/13 00:54:26;;;;;;;11.25;6.00;;;;;;;11.40;52.17;94846.50;2988056;39;20075;-72
2021/04/13 00:56:28;;;;;;;12.95;7.25;;;;;;;11.44;52.67;94854.84;2974349;39;20083;-73
2021/04/13 00:58:33;;;;;;;7.95;6.07;;;;;;;11.58;52.15;94853.41;2980274;39;20056;-72
2021/04/13 01:00:41;;;;;;;9.88;5.70;;;;;;;11.61;51.98;94855.72;2985038;39;20051;-73
2021/04/13 01:02:42;;;;;;;14.90;5.70;;;;;;;11.62;51.55;94852.13;2984741;39;20060;-72
2021/04/13 01:05:07;;;;;;;10.57;5.43;;;;;;;11.55;52.11;94851.09;2992347;39;20043;-71
2021/04/13 01:07:15;;;;;;;9.10;5.82;;;;;;;11.43;52.66;94843.53;2986801;39;20056;-73
2021/04/13 01:09:18;;;;;;;10.68;6.00;;;;;;;11.44;52.69;94839.09;2982943;39;20155;-72
2021/04/13 01:11:24;;;;;;;11.30;5.95;;;;;;;11.33;52.92;94847.28;2988561;39;20077;-72
2021/04/13 01:13:37;;;;;;;9.70;5.85;;;;;;;11.38;52.52;94840.59;2975329;39;20088;-72
2021/04/13 01:15:40;;;;;;;8.35;5.30;;;;;;;11.52;52.58;94847.00;2985347;39;20123;-71
2021/04/13 01:17:42;;;;;;;8.50;5.20;;;;;;;11.66;51.72;94828.00;2986343;39;20091;-84
2021/04/13 01:19:55;;;;;;;9.88;5.35;;;;;;;11.77;51.20;94840.00;2996203;39;20062;-85
2021/04/13 01:22:25;;;;;;;14.68;6.57;;;;;;;11.59;51.94;94836.69;2996499;39;20386;-72
2021/04/13 01:24:33;;;;;;;9.43;5.18;;;;;;;11.46;51.94;94840.63;3000586;39;20071;-71
2021/04/13 01:26:39;;;;;;;11.80;5.40;;;;;;;11.27;53.04;94839.09;2980750;39;20401;-72
2021/04/13 01:28:41;;;;;;;12.70;6.20;;;;;;;11.26;52.86;94837.44;2979720;39;20521;-73
2021/04/13 01:30:50;;;;;;;10.18;5.68;;;;;;;11.05;53.52;94840.47;2989849;39;20413;-72
2021/04/13 01:32:52;;;;;;;7.85;5.20;;;;;;;10.90;54.01;94833.38;2983007;39;20387;-72
2021/04/13 01:35:08;;;;;;;7.30;5.35;;;;;;;10.88;54.26;94837.94;2991632;39;20051;-71
2021/04/13 01:37:20;;;;;;;20.13;6.70;;;;;;;10.84;53.84;94834.81;2989634;39;20070;-72
2021/04/13 01:39:25;;;;;;;9.43;5.82;;;;;;;11.01;53.56;94830.47;2992121;39;20340;-72
2021/04/13 01:41:59;;;;;;;12.50;5.78;;;;;;;11.33;52.63;94837.59;2979379;39;20067;-71
2021/04/13 01:44:00;;;;;;;8.60;4.90;;;;;;;11.57;51.73;94841.28;2962583;39;20394;-71
2021/04/13 01:46:02;;;;;;;14.13;6.13;;;;;;;11.73;51.10;94837.88;2982226;39;20350;-71
2021/04/13 01:48:05;;;;;;;10.40;5.57;;;;;;;11.78;50.50;94836.38;2977352;39;20056;-72
2021/04/13 01:50:16;;;;;;;10.50;6.10;;;;;;;11.79;50.41;94843.28;2977508;39;20076;-72
2021/04/13 01:52:23;;;;;;;10.80;5.28;;;;;;;11.74;50.59;94850.81;2991875;39;20062;-72
2021/04/13 01:54:25;;;;;;;9.80;5.57;;;;;;;11.53;51.27;94847.81;2981331;39;20347;-85
2021/04/13 01:56:42;;;;;;;9.07;4.85;;;;;;;11.39;51.63;94846.66;2985827;39;20039;-72
2021/04/13 01:58:57;;;;;;;9.15;5.60;;;;;;;11.46;51.47;94838.00;2982921;39;20321;-72
2021/04/13 02:01:13;;;;;;;11.38;5.60;;;;;;;11.61;50.91;94851.28;2983149;39;20076;-72
2021/04/13 02:03:41;;;;;;;9.68;4.97;;;;;;;11.58;50.83;94853.41;2974563;39;20044;-72
2021/04/13 02:05:47;;;;;;;9.10;4.53;;;;;;;11.61;50.91;94855.72;2974806;39;20385;-71
2021/04/13 02:07:59;;;;;;;8.10;4.68;;;;;;;11.65;50.74;94846.53;2969905;40;20055;-71
2021/04/13 02:10:10;;;;;;;10.38;4.85;;;;;;;11.70;50.61;94844.22;2980280;39;20044;-71
2021/04/13 02:12:21;;;;;;;10.45;4.95;;;;;;;11.59;50.90;94849.81;2992162;39;20072;-73
2021/04/13 02:14:24;;;;;;;8.70;5.03;;;;;;;11.63;51.00;94848.50;2986018;39;20043;-84
2021/04/13 02:16:30;;;;;;;9.27;4.90;;;;;;;11.59;51.15;94853.25;2979432;40;20048;-83
2021/04/13 02:18:42;;;;;;;8.20;4.72;;;;;;;11.59;51.36;94842.75;2978133;39;20074;-84
2021/04/13 02:20:45;;;;;;;6.50;4.28;;;;;;;11.46;51.55;94834.53;2988032;39;20044;-85
2021/04/13 02:22:48;;;;;;;8.02;4.93;;;;;;;11.47;51.68;94842.25;2983817;39;20072;-85
2021/04/13 02:24:51;;;;;;;7.75;3.97;;;;;;;11.43;52.24;94840.91;2997603;39;20420;-85
2021/04/13 02:26:56;;;;;;;7.25;4.70;;;;;;;11.43;52.36;94832.25;2993451;39;20075;-84
2021/04/13 02:28:57;;;;;;;9.40;5.03;;;;;;;11.38;52.68;94835.34;2992267;39;20047;-86
2021/04/13 02:31:08;;;;;;;7.18;4.82;;;;;;;11.27;53.50;94839.09;2979246;40;20060;-84
2021/04/13 02:33:18;;;;;;;7.53;5.25;;;;;;;11.18;54.28;94828.72;2986355;39;20032;-84
2021/04/13 02:35:25;;;;;;;9.02;5.40;;;;;;;11.15;54.83;94837.72;2996288;39;20047;-85
2021/04/13 02:37:32;;;;;;;10.55;5.50;;;;;;;11.27;55.35;94835.63;2986744;39;20487;-86
2021/04/13 02:39:35;;;;;;;8.40;5.03;;;;;;;11.40;55.00;94833.38;2996024;39;20034;-86
2021/04/13 02:41:40;;;;;;;9.60;5.45;;;;;;;11.56;54.63;94831.78;2987021;39;20391;-85
2021/04/13 02:43:47;;;;;;;7.30;4.63;;;;;;;11.77;54.07;94831.31;2978809;39;20062;-85
2021/04/13 02:45:50;;;;;;;5.97;4.40;;;;;;;11.94;53.85;94829.53;2994289;39;20444;-86
2021/04/13 02:47:56;;;;;;;8.73;4.32;;;;;;;12.05;53.85;94827.41;2977901;40;20068;-85
2021/04/13 02:50:02;;;;;;;6.55;4.40;;;;;;;12.17;54.08;94827.06;2982402;39;20054;-83
2021/04/13 02:52:07;;;;;;;8.48;4.22;;;;;;;12.18;54.34;94834.78;2972511;39;20084;-85
2021/04/13 02:54:15;;;;;;;9.52;4.07;;;;;;;12.27;54.57;94844.28;2976653;40;20091;-84
2021/04/13 02:56:31;;;;;;;9.75;3.80;;;;;;;12.32;54.78;94829.84;2981125;39;20096;-86
2021/04/13 02:58:40;;;;;;;11.60;3.70;;;;;;;12.36;55.28;94831.16;2977494;40;20059;-84
2021/04/13 03:00:44;;;;;;;10.57;3.67;;;;;;;12.39;55.78;94839.53;2969837;40;20069;-86
2021/04/13 03:02:56;;;;;;;7.53;3.55;;;;;;;12.44;56.28;94836.38;2979357;39;20048;-86
2021/04/13 03:04:58;;;;;;;9.90;3.20;;;;;;;12.48;56.94;94843.78;2976200;40;20039;-84
2021/04/13 03:06:59;;;;;;;11.25;4.78;;;;;;;12.50;57.45;94844.44;2963068;40;20088;-73
2021/04/13 03:09:02;;;;;;;7.63;3.60;;;;;;;12.55;57.91;94843.09;2972445;39;20052;-72
2021/04/13 03:11:15;;;;;;;7.78;4.07;;;;;;;12.57;58.63;94849.00;2977588;39;20724;-72
2021/04/13 03:13:20;;;;;;;9.82;4.45;;;;;;;12.59;59.24;94847.03;2970799;39;20048;-71
2021/04/13 03:15:25;;;;;;;8.75;3.95;;;;;;;12.61;59.67;94842.44;2974411;39;20072;-72
2021/04/13 03:17:29;;;;;;;10.57;5.28;;;;;;;12.59;60.15;94841.78;2976965;39;20063;-86
2021/04/13 03:19:30;;;;;;;12.38;5.82;;;;;;;12.39;60.51;94854.44;2973282;40;20056;-87
2021/04/13 03:21:34;;;;;;;9.73;5.85;;;;;;;12.28;61.30;94851.19;2976868;40;20423;-84
2021/04/13 03:23:36;;;;;;;14.77;6.38;;;;;;;12.17;61.59;94848.88;2978995;39;20398;-86
2021/04/13 03:25:44;;;;;;;13.63;6.40;;;;;;;12.08;61.89;94850.69;2981867;39;20044;-86
2021/04/13 03:27:46;;;;;;;12.93;5.93;;;;;;;12.09;61.79;94835.78;2981477;40;20058;-86
2021/04/13 03:30:04;;;;;;;11.75;6.10;;;;;;;12.18;61.78;94842.66;2977228;39;20126;-85
2021/04/13 03:32:06;;;;;;;10.90;6.00;;;;;;;12.17;62.20;94846.25;2970988;40;20045;-85
2021/04/13 03:34:08;;;;;;;7.70;4.85;;;;;;;12.17;61.63;94840.19;2979453;40;20051;-85
2021/04/13 03:36:28;;;;;;;8.32;5.25;;;;;;;12.23;61.63;94834.28;2982996;39;20028;-86
2021/04/13 03:38:30;;;;;;;14.23;5.78;;;;;;;12.20;61.75;94834.63;2987699;40;20086;-85
2021/04/13 03:40:33;;;;;;;11.93;5.68;;;;;;;12.17;61.98;94829.69;2973904;40;20088;-86
2021/04/13 03:42:35;;;;;;;12.70;6.53;;;;;;;12.17;62.55;94838.38;2983102;39;20035;-84
2021/04/13 03:44:37;;;;;;;9.45;5.38;;;;;;;12.03;62.89;94824.13;2977519;39;20048;-72
2021/04/13 03:46:38;;;;;;;10.60;5.10;;;;;;;12.07;62.84;94827.25;2976104;39;20150;-71
2021/04/13 03:48:42;;;;;;;12.90;5.72;;;;;;;12.10;62.31;94832.16;2981033;39;20083;-72
2021/04/13 03:50:44;;;;;;;11.40;5.00;;;;;;;12.14;61.78;94828.22;2977103;39;20054;-72
2021/04/13 03:52:45;;;;;;;11.13;4.75;;;;;;;12.22;61.81;94822.97;2977506;39;20124;-71
2021/04/13 03:54:47;;;;;;;10.43;5.30;;;;;;;12.29;61.41;94825.75;2982861;39;20138;-72
2021/04/13 03:56:48;;;;;;;10.43;4.40;;;;;;;12.37;61.24;94825.72;2985859;39;20059;-85
2021/04/13 03:58:58;;;;;;;10.40;4.43;;;;;;;12.42;61.11;94823.41;2998092;39;20015;-85
2021/04/13 04:00:59;;;;;;;12.05;6.13;;;;;;;12.51;61.07;94824.22;2996766;39;20051;-86
2021/04/13 04:03:02;;;;;;;9.57;4.47;;;;;;;12.46;61.03;94829.97;2996709;39;20032;-87
2021/04/13 04:05:15;;;;;;;13.27;4.93;;;;;;;12.47;60.92;94818.47;2992419;39;20035;-86
2021/04/13 04:07:36;;;;;;;9.32;4.30;;;;;;;12.41;61.63;94811.28;2990530;39;20079;-86
2021/04/13 04:09:39;;;;;;;13.65;6.15;;;;;;;12.14;63.06;94822.16;2985720;39;20044;-72
2021/04/13 04:11:40;;;;;;;10.77;5.15;;;;;;;12.10;63.67;94826.91;2983460;39;20135;-73
2021/04/13 04:13:48;;;;;;;8.65;5.43;;;;;;;12.05;64.20;94826.59;2974887;39;20051;-72
2021/04/13 04:16:03;;;;;;;22.05;10.75;;;;;;;11.92;65.14;94827.09;2989425;39;20448;-72
2021/04/13 04:18:11;;;;;;;33.95;16.45;;;;;;;11.83;65.89;94833.25;2981942;39;20052;-74
2021/04/13 04:20:13;;;;;;;26.60;12.57;;;;;;;11.73;66.36;94832.63;2978483;39;20059;-74
2021/04/13 04:22:19;;;;;;;24.10;11.05;;;;;;;11.62;66.53;94833.75;2971884;39;20071;-72
2021/04/13 04:24:27;;;;;;;23.10;8.95;;;;;;;11.63;66.80;94840.63;2981221;39;20078;-73
2021/04/13 04:26:32;;;;;;;16.08;7.80;;;;;;;11.54;67.15;94839.78;2981028;39;20066;-73
2021/04/13 04:28:41;;;;;;;14.98;7.82;;;;;;;11.44;68.04;94834.72;2981900;39;20311;-75
2021/04/13 04:30:42;;;;;;;17.73;7.63;;;;;;;11.36;68.21;94839.13;2972129;39;20122;-73
2021/04/13 04:32:44;;;;;;;17.08;7.97;;;;;;;11.24;69.21;94844.63;2987343;39;20047;-72
2021/04/13 04:34:46;;;;;;;17.85;7.97;;;;;;;11.23;69.07;94847.44;2984813;39;20071;-73
2021/04/13 04:36:49;;;;;;;17.75;8.00;;;;;;;11.15;69.60;94844.78;2979858;39;20060;-72
2021/04/13 04:38:51;;;;;;;15.35;7.95;;;;;;;11.18;69.70;94844.47;2980516;39;20079;-73
2021/04/13 04:40:58;;;;;;;13.60;7.55;;;;;;;11.29;69.51;94836.28;2983590;39;20412;-71
2021/04/13 04:43:04;;;;;;;18.50;10.00;;;;;;;11.41;69.17;94839.44;2984292;39;20039;-73
2021/04/13 04:45:38;;;;;;;14.20;7.00;;;;;;;11.61;68.15;94832.91;2980565;39;20074;-72
2021/04/13 04:47:42;;;;;;;11.98;5.70;;;;;;;11.76;67.38;94834.91;2982276;39;20075;-74
2021/04/13 04:49:43;;;;;;;;;;;;;;;11.85;67.74;94829.50;2985192;39;20356;-73
2021/04/13 04:51:50;;;;;;;14.27;7.28;;;;;;;11.86;67.25;94832.94;2989880;39;20220;-74
2021/04/13 04:53:51;;;;;;;15.38;6.80;;;;;;;11.54;68.17;94833.72;2980509;39;20050;-72
2021/04/13 04:55:54;;;;;;;15.60;7.65;;;;;;;11.32;68.69;94837.78;2978156;39;20074;-72
2021/04/13 04:57:56;;;;;;;12.75;7.30;;;;;;;11.26;70.04;94836.63;2977399;39;20586;-72
2021/04/13 04:59:57;;;;;;;14.55;7.93;;;;;;;11.33;70.15;94829.75;2988130;39;20142;-72
2021/04/13 05:01:58;;;;;;;14.00;7.20;;;;;;;11.32;70.51;94825.50;2994261;39;20083;-73
2021/04/13 05:04:00;;;;;;;15.63;7.65;;;;;;;11.29;71.13;94825.78;2990972;39;20590;-74
2021/04/13 05:06:01;;;;;;;9.38;7.03;;;;;;;11.19;70.91;94825.94;2984783;39;20162;-73
2021/04/13 05:08:03;;;;;;;11.50;7.32;;;;;;;11.27;70.79;94812.03;2989710;39;20086;-74
2021/04/13 05:10:04;;;;;;;12.02;7.15;;;;;;;11.24;71.42;94809.72;2986072;39;20346;-74
2021/04/13 05:12:07;;;;;;;10.60;7.13;;;;;;;11.36;71.00;94813.69;2989507;39;20042;-73
2021/04/13 05:14:08;;;;;;;13.77;7.80;;;;;;;11.27;71.03;94812.88;2981285;39;20133;-73
2021/04/13 05:16:10;;;;;;;12.90;9.15;;;;;;;11.32;70.88;94819.44;2989168;39;20057;-73
2021/04/13 05:18:11;;;;;;;19.70;8.50;;;;;;;11.46;71.45;94803.03;2979925;39;20096;-72
2021/04/13 05:20:13;;;;;;;14.90;8.25;;;;;;;11.48;71.05;94796.66;2990907;39;20066;-75
2021/04/13 05:22:14;;;;;;;15.43;8.43;;;;;;;11.54;70.41;94797.81;2992717;39;20050;-73
2021/04/13 05:24:16;;;;;;;12.27;8.77;;;;;;;11.60;70.45;94791.91;2982597;39;20470;-73
2021/04/13 05:26:17;;;;;;;16.48;7.43;;;;;;;11.53;69.21;94803.22;2988691;39;20328;-73
2021/04/13 05:28:19;;;;;;;20.48;7.65;;;;;;;11.60;68.77;94798.97;2981429;39;20063;-73
2021/04/13 05:30:21;;;;;;;14.32;8.07;;;;;;;11.64;68.58;94793.25;2979707;39;20336;-73
2021/04/13 05:32:23;;;;;;;17.70;8.00;;;;;;;11.74;68.24;94794.88;2982929;39;20101;-72
2021/04/13 05:34:24;;;;;;;16.73;8.68;;;;;;;11.90;67.81;94797.53;2974930;39;20079;-71
2021/04/13 05:36:26;;;;;;;20.58;12.30;;;;;;;12.08;67.81;94790.28;2988970;39;20051;-74
2021/04/13 05:38:36;;;;;;;28.98;17.83;;;;;;;12.25;67.00;94801.59;2983361;39;20373;-73
2021/04/13 05:40:38;;;;;;;14.90;10.57;;;;;;;12.39;66.70;94794.88;2985455;39;20047;-72
2021/04/13 05:42:39;;;;;;;14.68;9.05;;;;;;;12.52;66.31;94796.13;2982925;39;20083;-74
2021/04/13 05:44:41;;;;;;;12.20;7.70;;;;;;;12.54;66.74;94800.25;2974600;39;20099;-73
2021/04/13 05:46:45;;;;;;;12.15;7.85;;;;;;;12.55;67.26;94791.34;2994480;39;20344;-72
2021/04/13 05:48:46;;;;;;;11.65;7.20;;;;;;;12.58;67.05;94798.09;2991785;39;20051;-72
2021/04/13 05:50:48;;;;;;;17.00;7.28;;;;;;;12.60;66.75;94791.66;2994300;39;20086;-73
2021/04/13 05:52:49;;;;;;;13.50;7.00;;;;;;;12.56;66.83;94795.66;2997603;39;20053;-74
2021/04/13 05:54:50;;;;;;;11.43;7.00;;;;;;;12.51;66.98;94784.81;2991459;39;20399;-74
2021/04/13 05:56:53;;;;;;;13.15;6.95;;;;;;;12.50;67.23;94780.53;2992192;39;20396;-73
2021/04/13 05:58:55;;;;;;;12.20;7.72;;;;;;;12.42;67.90;94775.31;2982828;39;20089;-73
2021/04/13 06:00:57;;;;;;;12.60;7.65;;;;;;;12.35;68.34;94774.34;2976833;39;20195;-73
2021/04/13 06:02:59;;;;;;;10.18;6.97;;;;;;;12.31;68.05;94775.66;2975175;39;20047;-74
2021/04/13 06:05:04;;;;;;;12.60;6.70;;;;;;;12.33;68.21;94778.94;2982322;39;20376;-74
2021/04/13 06:07:08;;;;;;;11.65;6.88;;;;;;;12.29;67.72;94784.53;2983886;39;20091;-73
2021/04/13 06:09:10;;;;;;;12.68;8.10;;;;;;;12.30;67.76;94764.31;2981749;39;20043;-75
2021/04/13 06:11:18;;;;;;;16.92;8.45;;;;;;;12.27;67.30;94754.97;2966889;39;20091;-75
2021/04/13 06:13:21;;;;;;;12.23;7.07;;;;;;;12.34;66.63;94759.56;2983229;39;20491;-75
2021/04/13 06:15:24;;;;;;;9.13;6.40;;;;;;;12.33;66.80;94771.88;2984140;39;20063;-74
2021/04/13 06:17:25;;;;;;;14.57;7.55;;;;;;;12.32;66.41;94772.03;2981308;39;20788;-73
2021/04/13 06:19:29;;;;;;;19.08;9.82;;;;;;;12.36;66.35;94776.78;2980922;39;20325;-72
2021/04/13 06:21:30;;;;;;;18.20;8.38;;;;;;;12.46;65.95;94771.34;2985563;39;20143;-72
2021/04/13 06:23:32;;;;;;;13.75;7.82;;;;;;;12.49;66.14;94734.22;2978860;39;20054;-72
2021/04/13 06:25:33;;;;;;;14.48;7.70;;;;;;;12.16;66.53;94717.75;2982076;39;20047;-73
2021/04/13 06:27:34;;;;;;;12.55;7.25;;;;;;;12.02;67.15;94725.34;2980011;39;20055;-73
2021/04/13 06:29:38;;;;;;;13.35;7.90;;;;;;;12.11;67.62;94731.41;2981414;39;20066;-73
2021/04/13 06:31:39;;;;;;;;;;;;;;;12.29;66.80;94734.63;2983841;39;20055;-73
2021/04/13 06:33:42;;;;;;;11.85;6.50;;;;;;;12.48;65.79;94727.34;2991394;39;19954;-73
2021/04/13 06:35:45;;;;;;;9.15;5.88;;;;;;;12.46;65.30;94716.19;2988072;39;20060;-73
2021/04/13 06:37:48;;;;;;;10.23;6.95;;;;;;;12.53;64.90;94713.69;2992578;39;20098;-74
2021/04/13 06:39:49;;;;;;;9.73;6.50;;;;;;;12.61;64.11;94711.03;2981820;39;20058;-73
2021/04/13 06:42:05;;;;;;;12.40;7.03;;;;;;;12.74;64.01;94729.69;2992049;39;20176;-73
2021/04/13 06:44:25;;;;;;;12.68;6.47;;;;;;;12.94;63.97;94729.28;2976162;39;20121;-74
2021/04/13 06:46:57;;;;;;;12.00;6.15;;;;;;;13.10;63.21;94731.81;2974407;39;20056;-74
2021/04/13 06:48:59;;;;;;;12.25;6.03;;;;;;;13.18;62.75;94733.56;2987796;39;20067;-74
2021/04/13 06:51:26;;;;;;;8.73;5.70;;;;;;;13.09;62.58;94741.50;2995297;39;20737;-87
2021/04/13 06:54:04;;;;;;;11.35;6.18;;;;;;;13.13;62.37;94728.00;2979164;39;20056;-89
2021/04/13 06:56:16;;;;;;;11.02;5.65;;;;;;;13.09;61.96;94741.50;2989542;39;20377;-86
2021/04/13 06:58:41;;;;;;;10.55;5.22;;;;;;;13.17;61.30;94729.31;3000515;39;20427;-88
2021/04/13 07:01:10;;;;;;;13.48;6.40;;;;;;;13.30;61.18;94729.56;2987420;39;20042;-87
2021/04/13 07:03:33;;;;;;;14.55;7.32;;;;;;;13.33;61.76;94723.94;2986833;39;20024;-88
2021/04/13 07:05:47;;;;;;;12.35;6.53;;;;;;;13.38;61.97;94719.00;2996227;39;20159;-87
2021/04/13 07:08:02;;;;;;;15.48;6.82;;;;;;;13.40;60.85;94722.28;2972149;39;20051;-86
2021/04/13 07:10:10;;;;;;;14.07;6.20;;;;;;;13.42;61.50;94720.28;2983037;39;20051;-88
2021/04/13 07:12:26;;;;;;;9.65;5.82;;;;;;;13.42;60.34;94714.19;2981741;39;20031;-86
2021/04/13 07:14:56;;;;;;;10.77;5.38;;;;;;;13.50;60.12;94720.19;2978929;39;20808;-88
2021/04/13 07:17:21;;;;;;;9.38;5.78;;;;;;;13.57;60.51;94711.59;2982689;39;20147;-88
2021/04/13 07:19:24;;;;;;;;;;;;;;;13.65;60.60;94708.91;2991321;39;20040;-88
2021/04/13 07:21:29;;;;;;;16.85;7.05;;;;;;;13.68;61.00;94698.84;3000964;39;19938;-86
2021/04/13 07:23:54;;;;;;;15.32;6.13;;;;;;;13.77;60.87;94698.78;3000114;39;20316;-88
2021/04/13 07:26:31;;;;;;;10.00;5.82;;;;;;;13.89;60.10;94698.16;2981399;39;20059;-86
2021/04/13 07:28:41;;;;;;;11.20;6.80;;;;;;;13.92;59.92;94704.91;2973833;39;20121;-85
2021/04/13 07:30:47;;;;;;;9.95;5.88;;;;;;;14.00;59.02;94704.78;2987903;39;20051;-85
2021/04/13 07:32:52;;;;;;;10.70;5.95;;;;;;;13.97;59.26;94693.81;2986550;39;20066;-86
2021/04/13 07:34:56;;;;;;;10.65;6.20;;;;;;;14.01;59.92;94697.72;2987063;39;20075;-87
2021/04/13 07:37:04;;;;;;;9.13;5.30;;;;;;;14.10;59.09;94692.19;2995087;39;20082;-86
2021/04/13 07:39:07;;;;;;;15.50;5.68;;;;;;;14.21;59.04;94703.28;2986898;39;20058;-73
2021/04/13 07:41:40;;;;;;;11.50;6.07;;;;;;;14.39;58.83;94701.13;2982029;39;20074;-73
2021/04/13 07:43:44;;;;;;;;;;;;;;;14.58;57.83;94707.66;2982425;39;20043;-72
2021/04/13 07:46:07;;;;;;;12.00;5.50;;;;;;;14.64;58.10;94693.75;2991699;39;19939;-75
2021/04/13 07:48:23;;;;;;;11.02;5.30;;;;;;;14.56;57.94;94698.28;2991731;39;20079;-72
2021/04/13 07:50:39;;;;;;;12.48;5.65;;;;;;;14.61;57.69;94694.13;2973385;39;20081;-72
2021/04/13 07:53:00;;;;;;;13.50;6.15;;;;;;;14.67;57.51;94690.75;2976142;39;20044;-72
2021/04/13 07:55:11;;;;;;;11.98;5.78;;;;;;;14.85;57.36;94692.16;2973013;39;20052;-73
2021/04/13 07:57:50;;;;;;;9.07;5.63;;;;;;;14.99;57.30;94691.28;2992071;39;20249;-73
2021/04/13 08:00:07;;;;;;;9.15;5.70;;;;;;;15.17;56.44;94685.63;2987325;39;20323;-75
2021/04/13 08:02:09;;;;;;;9.73;5.35;;;;;;;15.05;56.21;94682.63;2967180;39;20084;-75
2021/04/13 08:04:10;;;;;;;13.02;5.22;;;;;;;14.94;56.00;94688.41;2972682;39;20060;-73
2021/04/13 08:06:26;;;;;;;14.77;5.82;;;;;;;15.12;55.99;94691.47;2992133;39;20316;-72
2021/04/13 08:08:30;;;;;;;11.50;5.13;;;;;;;15.13;55.28;94685.16;2991394;39;20082;-73
2021/04/13 08:10:38;;;;;;;11.07;4.68;;;;;;;15.07;55.10;94688.53;2967742;39;20055;-75
2021/04/13 08:12:52;;;;;;;13.23;4.63;;;;;;;14.67;56.10;94690.75;2979874;39;20110;-73
2021/04/13 08:14:53;;;;;;;9.13;5.03;;;;;;;14.54;56.94;94693.19;2987840;39;20318;-74
2021/04/13 08:17:05;;;;;;;11.70;4.93;;;;;;;14.25;57.22;94686.09;2986782;39;20134;-74
2021/04/13 08:19:32;;;;;;;10.93;4.22;;;;;;;14.38;56.88;94677.56;2982084;39;20058;-74
2021/04/13 08:21:35;;;;;;;10.90;4.10;;;;;;;14.36;56.10;94683.00;2986545;39;20419;-73
2021/04/13 08:23:38;;;;;;;8.70;3.72;;;;;;;13.97;57.32;94685.91;2989086;39;20046;-76
2021/04/13 08:25:41;;;;;;;7.82;4.13;;;;;;;13.93;56.85;94688.09;2976435;39;20405;-72
2021/04/13 08:27:49;;;;;;;8.85;3.90;;;;;;;13.92;56.58;94684.63;2991169;39;20043;-73
2021/04/13 08:29:59;;;;;;;7.60;4.07;;;;;;;14.12;56.32;94684.09;2983335;39;20666;-73
2021/04/13 08:34:50;;;;;;;13.10;5.43;;;;;;;14.39;56.22;94681.81;2984894;39;20408;-72
2021/04/13 08:37:14;;;;;;;7.72;4.00;;;;;;;14.39;56.59;94685.31;2984927;39;20367;-75
2021/04/13 08:39:24;;;;;;;;;;;;;;;14.54;55.79;94678.19;2983391;39;20055;-74
2021/04/13 08:41:28;;;;;;;13.02;4.65;;;;;;;14.77;55.25;94679.91;2979363;39;19991;-74
2021/04/13 08:43:38;;;;;;;8.40;4.55;;;;;;;14.94;54.76;94672.59;2986400;39;20063;-74
2021/04/13 08:46:08;;;;;;;10.75;4.70;;;;;;;14.91;54.61;94663.22;2984536;39;20573;-74
2021/04/13 08:48:21;;;;;;;13.85;5.13;;;;;;;14.62;55.13;94668.56;2988755;39;20336;-72
2021/04/13 08:50:39;;;;;;;8.65;5.25;;;;;;;14.15;56.74;94665.28;2992070;39;20053;-76
2021/04/13 08:52:44;;;;;;;14.57;6.25;;;;;;;14.26;56.64;94664.00;2974945;39;20047;-74
2021/04/13 08:54:47;;;;;;;9.15;5.57;;;;;;;14.50;56.27;94666.38;2978012;39;20043;-74
2021/04/13 08:57:11;;;;;;;16.23;4.90;;;;;;;14.65;55.28;94665.56;2986825;39;20043;-72
2021/04/13 08:59:12;;;;;;;;;;;;;;;14.68;55.00;94666.00;2966132;39;20089;-73
2021/04/13 09:01:36;;;;;;;13.63;5.30;;;;;;;14.80;54.45;94668.16;2969823;39;19943;-73
2021/04/13 09:03:42;;;;;;;;;;;;;;;14.91;54.40;94663.22;2993113;39;20051;-73
2021/04/13 09:05:45;;;;;;;15.10;7.45;;;;;;;14.79;54.80;94661.25;2984462;39;19943;-73
2021/04/13 09:07:46;;;;;;;13.98;6.25;;;;;;;14.70;54.94;94671.09;2973522;40;20172;-73
2021/04/13 09:10:11;;;;;;;12.13;7.20;;;;;;;14.49;55.22;94674.47;2986116;39;20067;-72
2021/04/13 09:12:18;;;;;;;10.15;5.00;;;;;;;14.38;55.76;94664.38;2982609;39;20044;-73
2021/04/13 09:14:40;;;;;;;12.15;7.05;;;;;;;14.52;55.51;94655.66;2988252;39;20118;-71
2021/04/13 09:16:46;;;;;;;16.77;6.10;;;;;;;14.59;55.25;94661.03;2996127;39;20067;-74
2021/04/13 09:19:28;;;;;;;8.82;5.45;;;;;;;14.56;55.93;94664.03;2977376;39;20056;-74
2021/04/13 09:21:33;;;;;;;16.15;6.18;;;;;;;14.77;54.83;94650.06;2987263;39;20059;-76
2021/04/13 09:23:39;;;;;;;10.52;5.78;;;;;;;14.94;54.15;94656.75;2992187;39;20429;-75
2021/04/13 09:25:49;;;;;;;13.45;5.38;;;;;;;15.09;54.13;94654.06;2968081;39;20609;-72
2021/04/13 09:28:09;;;;;;;10.13;5.07;;;;;;;15.19;53.59;94651.13;2991225;39;20135;-74
2021/04/13 09:30:33;;;;;;;11.73;5.25;;;;;;;15.30;53.23;94645.34;2991814;39;20066;-72
2021/04/13 09:32:40;;;;;;;9.45;5.30;;;;;;;15.35;53.37;94643.75;2977572;39;20091;-75
2021/04/13 09:35:00;;;;;;;12.95;5.45;;;;;;;15.41;53.19;94642.19;2977767;39;20055;-72
2021/04/13 09:37:10;;;;;;;9.13;4.93;;;;;;;15.45;53.31;94640.00;2981990;39;20122;-73
2021/04/13 09:39:30;;;;;;;12.52;4.95;;;;;;;15.47;53.15;94640.63;2989441;39;20078;-73
2021/04/13 09:41:41;;;;;;;8.65;4.65;;;;;;;15.51;53.07;94636.59;2985438;39;20079;-88
2021/04/13 09:44:01;;;;;;;14.43;5.40;;;;;;;15.54;52.98;94637.00;2989054;39;20067;-87
2021/04/13 09:46:05;;;;;;;11.60;5.32;;;;;;;15.54;52.72;94630.91;2989229;39;20513;-89
2021/04/13 09:48:25;;;;;;;8.13;3.40;;;;;;;15.53;52.55;94639.84;2990203;39;20067;-86
2021/04/13 09:50:32;;;;;;;10.07;3.42;;;;;;;15.53;52.47;94640.66;2998293;39;20042;-87
2021/04/13 09:53:10;;;;;;;11.20;4.47;;;;;;;15.52;52.21;94627.66;2987870;39;20031;-88
2021/04/13 09:55:26;;;;;;;8.25;4.22;;;;;;;15.37;52.77;94640.94;2998180;39;20304;-87
2021/04/13 09:57:36;;;;;;;12.75;4.35;;;;;;;15.37;52.97;94635.66;2988935;39;20032;-87
2021/04/13 09:59:47;;;;;;;11.38;5.40;;;;;;;15.34;54.46;94636.03;2997491;39;20128;-86
2021/04/13 10:02:19;;;;;;;9.90;5.07;;;;;;;15.35;54.73;94638.47;2989870;39;20047;-88
2021/04/13 10:04:52;;;;;;;15.75;5.68;;;;;;;15.36;54.97;94639.31;2991782;39;20039;-86